sensor_id;sensor_type;location;lat;lon;timestamp;P1;durP1;ratioP1;P2;durP2;ratioP2
25870;SDS011;13689;48.590;7.752;2023-08-21T00:01:58;7.22;;;3.83;;
25870;SDS011;13689;48.590;7.752;2023-08-21T00:04:24;6.72;;;4.53;;
25870;SDS011;13689;48.590;7.752;2023-08-21T00:06:49;8.77;;;4.30;;
25870;SDS011;13689;48.590;7.752;2023-08-21T00:09:15;5.50;;;3.70;;
25870;SDS011;13689;48.590;7.752;2023-08-21T00:11:41;10.82;;;4.32;;
25870;SDS011;13689;48.590;7.752;2023-08-21T00:14:06;5.22;;;3.85;;
25870;SDS011;13689;48.590;7.752;2023-08-21T00:16:32;8.93;;;4.45;;
25870;SDS011;13689;48.590;7.752;2023-08-21T00:18:57;9.48;;;4.05;;
25870;SDS011;13689;48.590;7.752;2023-08-21T00:21:23;11.98;;;4.13;;
25870;SDS011;13689;48.590;7.752;2023-08-21T00:23:48;4.55;;;3.90;;
25870;SDS011;13689;48.590;7.752;2023-08-21T00:26:14;5.47;;;3.83;;
25870;SDS011;13689;48.590;7.752;2023-08-21T00:28:40;4.03;;;3.63;;
25870;SDS011;13689;48.590;7.752;2023-08-21T00:31:05;6.15;;;3.83;;
25870;SDS011;13689;48.590;7.752;2023-08-21T00:33:31;6.32;;;3.65;;
25870;SDS011;13689;48.590;7.752;2023-08-21T00:35:57;6.20;;;3.95;;
25870;SDS011;13689;48.590;7.752;2023-08-21T00:38:23;5.43;;;4.03;;
25870;SDS011;13689;48.590;7.752;2023-08-21T00:40:50;6.53;;;4.30;;
25870;SDS011;13689;48.590;7.752;2023-08-21T00:43:16;7.68;;;4.00;;
25870;SDS011;13689;48.590;7.752;2023-08-21T00:45:42;6.80;;;4.07;;
25870;SDS011;13689;48.590;7.752;2023-08-21T00:48:10;6.72;;;4.43;;
25870;SDS011;13689;48.590;7.752;2023-08-21T00:50:37;9.00;;;3.95;;
25870;SDS011;13689;48.590;7.752;2023-08-21T00:53:03;8.55;;;3.97;;
25870;SDS011;13689;48.590;7.752;2023-08-21T00:55:30;6.65;;;3.88;;
25870;SDS011;13689;48.590;7.752;2023-08-21T00:57:56;5.43;;;3.60;;
25870;SDS011;13689;48.590;7.752;2023-08-21T01:00:23;6.95;;;3.47;;
25870;SDS011;13689;48.590;7.752;2023-08-21T01:02:50;6.80;;;3.53;;
25870;SDS011;13689;48.590;7.752;2023-08-21T01:05:17;6.97;;;4.18;;
25870;SDS011;13689;48.590;7.752;2023-08-21T01:07:56;7.05;;;3.38;;
25870;SDS011;13689;48.590;7.752;2023-08-21T01:10:33;10.82;;;4.55;;
25870;SDS011;13689;48.590;7.752;2023-08-21T01:16:22;6.80;;;4.00;;
25870;SDS011;13689;48.590;7.752;2023-08-21T01:18:49;8.70;;;4.13;;
25870;SDS011;13689;48.590;7.752;2023-08-21T01:21:16;3.97;;;3.53;;
25870;SDS011;13689;48.590;7.752;2023-08-21T01:23:42;7.65;;;3.53;;
25870;SDS011;13689;48.590;7.752;2023-08-21T01:26:08;5.70;;;4.07;;
25870;SDS011;13689;48.590;7.752;2023-08-21T01:28:34;8.60;;;3.85;;
25870;SDS011;13689;48.590;7.752;2023-08-21T01:31:03;6.35;;;3.78;;
25870;SDS011;13689;48.590;7.752;2023-08-21T01:33:30;4.25;;;3.38;;
25870;SDS011;13689;48.590;7.752;2023-08-21T01:36:00;4.38;;;3.53;;
25870;SDS011;13689;48.590;7.752;2023-08-21T01:38:30;5.22;;;3.60;;
25870;SDS011;13689;48.590;7.752;2023-08-21T01:40:57;7.03;;;4.10;;
25870;SDS011;13689;48.590;7.752;2023-08-21T01:43:23;5.93;;;3.38;;
25870;SDS011;13689;48.590;7.752;2023-08-21T01:45:49;5.85;;;3.40;;
25870;SDS011;13689;48.590;7.752;2023-08-21T01:48:15;8.43;;;3.25;;
25870;SDS011;13689;48.590;7.752;2023-08-21T01:50:40;9.02;;;3.47;;
25870;SDS011;13689;48.590;7.752;2023-08-21T01:53:06;5.88;;;3.30;;
25870;SDS011;13689;48.590;7.752;2023-08-21T01:55:31;6.97;;;3.42;;
25870;SDS011;13689;48.590;7.752;2023-08-21T01:57:57;7.18;;;3.65;;
25870;SDS011;13689;48.590;7.752;2023-08-21T02:00:22;6.15;;;3.42;;
25870;SDS011;13689;48.590;7.752;2023-08-21T02:02:48;5.43;;;3.65;;
25870;SDS011;13689;48.590;7.752;2023-08-21T02:05:14;5.43;;;3.00;;
25870;SDS011;13689;48.590;7.752;2023-08-21T02:07:39;7.40;;;3.58;;
25870;SDS011;13689;48.590;7.752;2023-08-21T02:10:05;7.45;;;3.45;;
25870;SDS011;13689;48.590;7.752;2023-08-21T02:12:31;6.03;;;3.65;;
25870;SDS011;13689;48.590;7.752;2023-08-21T02:14:57;5.65;;;3.35;;
25870;SDS011;13689;48.590;7.752;2023-08-21T02:17:25;8.27;;;3.60;;
25870;SDS011;13689;48.590;7.752;2023-08-21T02:19:51;5.15;;;3.47;;
25870;SDS011;13689;48.590;7.752;2023-08-21T02:22:16;5.95;;;3.72;;
25870;SDS011;13689;48.590;7.752;2023-08-21T02:24:42;5.88;;;3.58;;
25870;SDS011;13689;48.590;7.752;2023-08-21T02:27:07;11.10;;;5.53;;
25870;SDS011;13689;48.590;7.752;2023-08-21T02:29:33;5.85;;;4.18;;
25870;SDS011;13689;48.590;7.752;2023-08-21T02:31:59;4.57;;;3.47;;
25870;SDS011;13689;48.590;7.752;2023-08-21T02:34:24;5.65;;;3.88;;
25870;SDS011;13689;48.590;7.752;2023-08-21T02:36:50;7.90;;;3.80;;
25870;SDS011;13689;48.590;7.752;2023-08-21T02:39:15;6.13;;;3.30;;
25870;SDS011;13689;48.590;7.752;2023-08-21T02:41:41;7.97;;;3.83;;
25870;SDS011;13689;48.590;7.752;2023-08-21T02:44:07;7.15;;;3.65;;
25870;SDS011;13689;48.590;7.752;2023-08-21T02:46:32;4.50;;;3.60;;
25870;SDS011;13689;48.590;7.752;2023-08-21T02:48:59;7.17;;;3.93;;
25870;SDS011;13689;48.590;7.752;2023-08-21T02:51:24;7.25;;;3.35;;
25870;SDS011;13689;48.590;7.752;2023-08-21T02:53:50;5.75;;;3.60;;
25870;SDS011;13689;48.590;7.752;2023-08-21T02:56:15;7.93;;;4.38;;
25870;SDS011;13689;48.590;7.752;2023-08-21T02:58:41;12.48;;;5.93;;
25870;SDS011;13689;48.590;7.752;2023-08-21T03:01:07;8.80;;;5.43;;
25870;SDS011;13689;48.590;7.752;2023-08-21T03:03:33;7.47;;;4.57;;
25870;SDS011;13689;48.590;7.752;2023-08-21T03:06:00;6.80;;;4.45;;
25870;SDS011;13689;48.590;7.752;2023-08-21T03:08:26;8.95;;;3.95;;
25870;SDS011;13689;48.590;7.752;2023-08-21T03:10:52;4.38;;;3.53;;
25870;SDS011;13689;48.590;7.752;2023-08-21T03:13:17;8.80;;;4.38;;
25870;SDS011;13689;48.590;7.752;2023-08-21T03:15:43;6.93;;;4.03;;
25870;SDS011;13689;48.590;7.752;2023-08-21T03:18:09;17.58;;;4.30;;
25870;SDS011;13689;48.590;7.752;2023-08-21T03:20:35;7.05;;;3.83;;
25870;SDS011;13689;48.590;7.752;2023-08-21T03:23:00;8.85;;;4.05;;
25870;SDS011;13689;48.590;7.752;2023-08-21T03:25:27;9.75;;;4.15;;
25870;SDS011;13689;48.590;7.752;2023-08-21T03:27:53;5.10;;;4.33;;
25870;SDS011;13689;48.590;7.752;2023-08-21T03:30:18;7.22;;;3.80;;
25870;SDS011;13689;48.590;7.752;2023-08-21T03:32:44;5.18;;;3.88;;
25870;SDS011;13689;48.590;7.752;2023-08-21T03:35:10;4.88;;;4.22;;
25870;SDS011;13689;48.590;7.752;2023-08-21T03:37:35;9.25;;;4.25;;
25870;SDS011;13689;48.590;7.752;2023-08-21T03:40:02;12.50;;;4.10;;
25870;SDS011;13689;48.590;7.752;2023-08-21T03:42:28;7.43;;;4.03;;
25870;SDS011;13689;48.590;7.752;2023-08-21T03:44:54;8.32;;;4.65;;
25870;SDS011;13689;48.590;7.752;2023-08-21T03:47:20;7.32;;;4.30;;
25870;SDS011;13689;48.590;7.752;2023-08-21T03:49:45;10.25;;;4.93;;
25870;SDS011;13689;48.590;7.752;2023-08-21T03:52:13;5.13;;;4.25;;
25870;SDS011;13689;48.590;7.752;2023-08-21T03:54:39;6.43;;;4.18;;
25870;SDS011;13689;48.590;7.752;2023-08-21T03:57:04;11.13;;;4.30;;
25870;SDS011;13689;48.590;7.752;2023-08-21T03:59:30;6.43;;;4.40;;
25870;SDS011;13689;48.590;7.752;2023-08-21T04:01:56;6.68;;;4.57;;
25870;SDS011;13689;48.590;7.752;2023-08-21T04:04:21;9.77;;;4.45;;
25870;SDS011;13689;48.590;7.752;2023-08-21T04:06:47;7.80;;;4.30;;
25870;SDS011;13689;48.590;7.752;2023-08-21T04:09:14;6.97;;;4.60;;
25870;SDS011;13689;48.590;7.752;2023-08-21T04:11:39;8.80;;;3.95;;
25870;SDS011;13689;48.590;7.752;2023-08-21T04:14:06;9.27;;;4.53;;
25870;SDS011;13689;48.590;7.752;2023-08-21T04:16:31;7.00;;;4.60;;
25870;SDS011;13689;48.590;7.752;2023-08-21T04:18:57;8.60;;;3.90;;
25870;SDS011;13689;48.590;7.752;2023-08-21T04:21:22;7.15;;;4.60;;
25870;SDS011;13689;48.590;7.752;2023-08-21T04:23:48;6.20;;;4.07;;
25870;SDS011;13689;48.590;7.752;2023-08-21T04:26:14;9.57;;;4.35;;
25870;SDS011;13689;48.590;7.752;2023-08-21T04:28:39;11.07;;;4.70;;
25870;SDS011;13689;48.590;7.752;2023-08-21T04:31:06;7.00;;;4.35;;
25870;SDS011;13689;48.590;7.752;2023-08-21T04:33:32;11.93;;;4.50;;
25870;SDS011;13689;48.590;7.752;2023-08-21T04:35:58;6.05;;;4.82;;
25870;SDS011;13689;48.590;7.752;2023-08-21T04:38:24;8.35;;;4.65;;
25870;SDS011;13689;48.590;7.752;2023-08-21T04:40:50;13.23;;;5.40;;
25870;SDS011;13689;48.590;7.752;2023-08-21T04:43:16;5.85;;;3.97;;
25870;SDS011;13689;48.590;7.752;2023-08-21T04:45:48;9.30;;;5.03;;
25870;SDS011;13689;48.590;7.752;2023-08-21T04:48:23;8.98;;;5.10;;
25870;SDS011;13689;48.590;7.752;2023-08-21T04:50:49;10.40;;;5.20;;
25870;SDS011;13689;48.590;7.752;2023-08-21T04:53:14;8.00;;;4.57;;
25870;SDS011;13689;48.590;7.752;2023-08-21T04:55:40;6.15;;;4.78;;
25870;SDS011;13689;48.590;7.752;2023-08-21T04:58:07;7.82;;;4.97;;
25870;SDS011;13689;48.590;7.752;2023-08-21T05:00:33;8.48;;;4.85;;
25870;SDS011;13689;48.590;7.752;2023-08-21T05:02:58;11.88;;;5.43;;
25870;SDS011;13689;48.590;7.752;2023-08-21T05:05:24;9.43;;;4.80;;
25870;SDS011;13689;48.590;7.752;2023-08-21T05:07:53;5.75;;;4.43;;
25870;SDS011;13689;48.590;7.752;2023-08-21T05:10:19;7.10;;;4.65;;
25870;SDS011;13689;48.590;7.752;2023-08-21T05:12:45;10.27;;;4.90;;
25870;SDS011;13689;48.590;7.752;2023-08-21T05:15:11;7.95;;;4.95;;
25870;SDS011;13689;48.590;7.752;2023-08-21T05:17:37;8.45;;;4.45;;
25870;SDS011;13689;48.590;7.752;2023-08-21T05:20:03;9.48;;;5.07;;
25870;SDS011;13689;48.590;7.752;2023-08-21T05:22:29;6.78;;;5.10;;
25870;SDS011;13689;48.590;7.752;2023-08-21T05:24:54;7.75;;;4.93;;
25870;SDS011;13689;48.590;7.752;2023-08-21T05:27:20;11.57;;;4.90;;
25870;SDS011;13689;48.590;7.752;2023-08-21T05:29:46;8.23;;;4.75;;
25870;SDS011;13689;48.590;7.752;2023-08-21T05:32:12;7.30;;;5.90;;
25870;SDS011;13689;48.590;7.752;2023-08-21T05:34:37;8.10;;;4.80;;
25870;SDS011;13689;48.590;7.752;2023-08-21T05:37:03;10.18;;;5.15;;
25870;SDS011;13689;48.590;7.752;2023-08-21T05:39:29;7.47;;;4.88;;
25870;SDS011;13689;48.590;7.752;2023-08-21T05:41:54;10.35;;;5.38;;
25870;SDS011;13689;48.590;7.752;2023-08-21T05:44:20;13.63;;;5.20;;
25870;SDS011;13689;48.590;7.752;2023-08-21T05:46:46;9.80;;;5.13;;
25870;SDS011;13689;48.590;7.752;2023-08-21T05:49:12;6.90;;;4.90;;
25870;SDS011;13689;48.590;7.752;2023-08-21T05:51:38;11.20;;;5.05;;
25870;SDS011;13689;48.590;7.752;2023-08-21T05:54:04;10.18;;;4.85;;
25870;SDS011;13689;48.590;7.752;2023-08-21T05:56:29;8.70;;;5.25;;
25870;SDS011;13689;48.590;7.752;2023-08-21T05:58:55;7.47;;;5.43;;
25870;SDS011;13689;48.590;7.752;2023-08-21T06:01:20;10.18;;;4.82;;
25870;SDS011;13689;48.590;7.752;2023-08-21T06:03:46;9.10;;;5.38;;
25870;SDS011;13689;48.590;7.752;2023-08-21T06:06:12;7.43;;;5.68;;
25870;SDS011;13689;48.590;7.752;2023-08-21T06:08:37;10.27;;;5.15;;
25870;SDS011;13689;48.590;7.752;2023-08-21T06:11:03;8.93;;;4.93;;
25870;SDS011;13689;48.590;7.752;2023-08-21T06:13:29;8.63;;;4.85;;
25870;SDS011;13689;48.590;7.752;2023-08-21T06:15:56;10.18;;;5.68;;
25870;SDS011;13689;48.590;7.752;2023-08-21T06:18:21;6.35;;;4.32;;
25870;SDS011;13689;48.590;7.752;2023-08-21T06:20:48;7.60;;;4.90;;
25870;SDS011;13689;48.590;7.752;2023-08-21T06:23:14;11.47;;;5.17;;
25870;SDS011;13689;48.590;7.752;2023-08-21T06:25:39;10.35;;;5.70;;
25870;SDS011;13689;48.590;7.752;2023-08-21T06:28:09;6.65;;;5.25;;
25870;SDS011;13689;48.590;7.752;2023-08-21T06:30:34;8.15;;;5.18;;
25870;SDS011;13689;48.590;7.752;2023-08-21T06:33:00;5.85;;;4.63;;
25870;SDS011;13689;48.590;7.752;2023-08-21T06:35:25;7.50;;;5.05;;
25870;SDS011;13689;48.590;7.752;2023-08-21T06:37:51;8.18;;;5.05;;
25870;SDS011;13689;48.590;7.752;2023-08-21T06:40:17;8.50;;;5.40;;
25870;SDS011;13689;48.590;7.752;2023-08-21T06:42:42;6.93;;;5.10;;
25870;SDS011;13689;48.590;7.752;2023-08-21T06:45:08;9.63;;;5.10;;
25870;SDS011;13689;48.590;7.752;2023-08-21T06:47:34;5.40;;;4.57;;
25870;SDS011;13689;48.590;7.752;2023-08-21T06:49:59;8.40;;;4.78;;
25870;SDS011;13689;48.590;7.752;2023-08-21T06:52:25;8.45;;;5.10;;
25870;SDS011;13689;48.590;7.752;2023-08-21T06:54:51;7.03;;;5.15;;
25870;SDS011;13689;48.590;7.752;2023-08-21T06:57:17;8.35;;;5.40;;
25870;SDS011;13689;48.590;7.752;2023-08-21T06:59:43;12.45;;;5.78;;
25870;SDS011;13689;48.590;7.752;2023-08-21T07:02:08;13.45;;;5.63;;
25870;SDS011;13689;48.590;7.752;2023-08-21T07:04:34;8.10;;;5.00;;
25870;SDS011;13689;48.590;7.752;2023-08-21T07:06:59;12.43;;;5.60;;
25870;SDS011;13689;48.590;7.752;2023-08-21T07:09:25;12.35;;;5.55;;
25870;SDS011;13689;48.590;7.752;2023-08-21T07:11:51;8.15;;;5.72;;
25870;SDS011;13689;48.590;7.752;2023-08-21T07:14:16;8.45;;;5.43;;
25870;SDS011;13689;48.590;7.752;2023-08-21T07:16:42;8.18;;;5.38;;
25870;SDS011;13689;48.590;7.752;2023-08-21T07:19:08;11.45;;;5.50;;
25870;SDS011;13689;48.590;7.752;2023-08-21T07:21:34;9.20;;;5.60;;
25870;SDS011;13689;48.590;7.752;2023-08-21T07:24:02;7.85;;;4.97;;
25870;SDS011;13689;48.590;7.752;2023-08-21T07:26:28;9.68;;;4.88;;
25870;SDS011;13689;48.590;7.752;2023-08-21T07:28:54;11.07;;;5.68;;
25870;SDS011;13689;48.590;7.752;2023-08-21T07:31:19;14.65;;;5.60;;
25870;SDS011;13689;48.590;7.752;2023-08-21T07:33:45;13.52;;;5.32;;
25870;SDS011;13689;48.590;7.752;2023-08-21T07:36:11;8.52;;;5.53;;
25870;SDS011;13689;48.590;7.752;2023-08-21T07:38:42;8.95;;;5.78;;
25870;SDS011;13689;48.590;7.752;2023-08-21T07:41:08;7.60;;;5.80;;
25870;SDS011;13689;48.590;7.752;2023-08-21T07:43:35;7.85;;;5.22;;
25870;SDS011;13689;48.590;7.752;2023-08-21T07:46:05;9.55;;;4.90;;
25870;SDS011;13689;48.590;7.752;2023-08-21T07:50:58;11.40;;;5.90;;
25870;SDS011;13689;48.590;7.752;2023-08-21T07:53:25;13.68;;;6.82;;
25870;SDS011;13689;48.590;7.752;2023-08-21T07:55:50;12.27;;;5.90;;
25870;SDS011;13689;48.590;7.752;2023-08-21T07:58:16;9.98;;;5.97;;
25870;SDS011;13689;48.590;7.752;2023-08-21T08:00:44;12.50;;;6.18;;
25870;SDS011;13689;48.590;7.752;2023-08-21T08:03:10;8.25;;;5.70;;
25870;SDS011;13689;48.590;7.752;2023-08-21T08:05:36;9.18;;;5.72;;
25870;SDS011;13689;48.590;7.752;2023-08-21T08:08:03;10.40;;;5.43;;
25870;SDS011;13689;48.590;7.752;2023-08-21T08:10:29;7.43;;;5.35;;
25870;SDS011;13689;48.590;7.752;2023-08-21T08:12:55;8.05;;;5.32;;
25870;SDS011;13689;48.590;7.752;2023-08-21T08:15:21;8.52;;;5.88;;
25870;SDS011;13689;48.590;7.752;2023-08-21T08:17:47;11.25;;;5.15;;
25870;SDS011;13689;48.590;7.752;2023-08-21T08:20:17;10.23;;;6.05;;
25870;SDS011;13689;48.590;7.752;2023-08-21T08:22:43;8.23;;;5.13;;
25870;SDS011;13689;48.590;7.752;2023-08-21T08:25:08;15.63;;;5.18;;
25870;SDS011;13689;48.590;7.752;2023-08-21T08:27:35;13.38;;;5.35;;
25870;SDS011;13689;48.590;7.752;2023-08-21T08:30:01;7.90;;;5.57;;
25870;SDS011;13689;48.590;7.752;2023-08-21T08:32:26;7.20;;;5.45;;
25870;SDS011;13689;48.590;7.752;2023-08-21T08:34:53;6.60;;;5.18;;
25870;SDS011;13689;48.590;7.752;2023-08-21T08:37:19;9.55;;;5.85;;
25870;SDS011;13689;48.590;7.752;2023-08-21T08:39:47;9.95;;;5.03;;
25870;SDS011;13689;48.590;7.752;2023-08-21T08:42:14;12.80;;;5.25;;
25870;SDS011;13689;48.590;7.752;2023-08-21T08:44:43;6.40;;;4.57;;
25870;SDS011;13689;48.590;7.752;2023-08-21T08:47:13;10.77;;;5.57;;
25870;SDS011;13689;48.590;7.752;2023-08-21T08:49:39;10.07;;;5.60;;
25870;SDS011;13689;48.590;7.752;2023-08-21T08:52:05;6.93;;;5.70;;
25870;SDS011;13689;48.590;7.752;2023-08-21T08:54:31;9.80;;;5.75;;
25870;SDS011;13689;48.590;7.752;2023-08-21T08:56:58;5.75;;;4.53;;
25870;SDS011;13689;48.590;7.752;2023-08-21T08:59:23;13.95;;;6.00;;
25870;SDS011;13689;48.590;7.752;2023-08-21T09:01:49;7.50;;;5.47;;
25870;SDS011;13689;48.590;7.752;2023-08-21T09:04:15;6.25;;;5.18;;
25870;SDS011;13689;48.590;7.752;2023-08-21T09:06:41;10.27;;;5.20;;
25870;SDS011;13689;48.590;7.752;2023-08-21T09:09:09;11.73;;;5.10;;
25870;SDS011;13689;48.590;7.752;2023-08-21T09:11:35;8.23;;;5.53;;
25870;SDS011;13689;48.590;7.752;2023-08-21T09:14:07;13.60;;;6.05;;
25870;SDS011;13689;48.590;7.752;2023-08-21T09:16:32;6.28;;;4.60;;
25870;SDS011;13689;48.590;7.752;2023-08-21T09:18:58;12.48;;;4.72;;
25870;SDS011;13689;48.590;7.752;2023-08-21T09:21:25;8.60;;;4.80;;
25870;SDS011;13689;48.590;7.752;2023-08-21T09:23:59;7.65;;;5.57;;
25870;SDS011;13689;48.590;7.752;2023-08-21T09:26:25;9.10;;;5.50;;
25870;SDS011;13689;48.590;7.752;2023-08-21T09:28:51;11.18;;;4.95;;
25870;SDS011;13689;48.590;7.752;2023-08-21T09:31:30;5.50;;;4.65;;
25870;SDS011;13689;48.590;7.752;2023-08-21T09:33:58;5.88;;;5.22;;
25870;SDS011;13689;48.590;7.752;2023-08-21T09:36:26;7.28;;;4.85;;
25870;SDS011;13689;48.590;7.752;2023-08-21T09:38:52;8.38;;;4.80;;
25870;SDS011;13689;48.590;7.752;2023-08-21T09:41:21;9.17;;;5.10;;
25870;SDS011;13689;48.590;7.752;2023-08-21T09:43:47;6.43;;;4.35;;
25870;SDS011;13689;48.590;7.752;2023-08-21T09:46:17;9.43;;;4.22;;
25870;SDS011;13689;48.590;7.752;2023-08-21T09:48:48;7.78;;;4.50;;
25870;SDS011;13689;48.590;7.752;2023-08-21T09:51:16;7.13;;;4.38;;
25870;SDS011;13689;48.590;7.752;2023-08-21T09:53:42;12.32;;;4.13;;
25870;SDS011;13689;48.590;7.752;2023-08-21T09:56:08;13.57;;;4.83;;
25870;SDS011;13689;48.590;7.752;2023-08-21T09:58:36;6.10;;;4.03;;
25870;SDS011;13689;48.590;7.752;2023-08-21T10:01:04;6.43;;;4.07;;
25870;SDS011;13689;48.590;7.752;2023-08-21T10:03:37;7.75;;;4.05;;
25870;SDS011;13689;48.590;7.752;2023-08-21T10:06:04;6.97;;;4.10;;
25870;SDS011;13689;48.590;7.752;2023-08-21T10:08:31;7.90;;;3.85;;
25870;SDS011;13689;48.590;7.752;2023-08-21T10:11:01;11.80;;;4.45;;
25870;SDS011;13689;48.590;7.752;2023-08-21T10:13:30;13.80;;;4.32;;
25870;SDS011;13689;48.590;7.752;2023-08-21T10:15:57;5.13;;;4.38;;
25870;SDS011;13689;48.590;7.752;2023-08-21T10:18:24;9.70;;;4.80;;
25870;SDS011;13689;48.590;7.752;2023-08-21T10:20:55;6.57;;;4.28;;
25870;SDS011;13689;48.590;7.752;2023-08-21T10:23:30;4.80;;;3.63;;
25870;SDS011;13689;48.590;7.752;2023-08-21T10:25:57;9.27;;;3.63;;
25870;SDS011;13689;48.590;7.752;2023-08-21T10:29:11;7.13;;;3.50;;
25870;SDS011;13689;48.590;7.752;2023-08-21T10:31:31;7.93;;;3.90;;
25870;SDS011;13689;48.590;7.752;2023-08-21T10:34:05;10.27;;;3.88;;
25870;SDS011;13689;48.590;7.752;2023-08-21T10:41:56;6.43;;;4.05;;
25870;SDS011;13689;48.590;7.752;2023-08-21T10:44:45;3.67;;;3.38;;
25870;SDS011;13689;48.590;7.752;2023-08-21T10:49:53;8.63;;;3.60;;
25870;SDS011;13689;48.590;7.752;2023-08-21T10:52:21;7.63;;;4.38;;
25870;SDS011;13689;48.590;7.752;2023-08-21T10:54:52;5.68;;;3.80;;
25870;SDS011;13689;48.590;7.752;2023-08-21T10:57:19;6.20;;;3.78;;
25870;SDS011;13689;48.590;7.752;2023-08-21T10:59:49;8.52;;;4.15;;
25870;SDS011;13689;48.590;7.752;2023-08-21T11:02:26;10.38;;;4.55;;
25870;SDS011;13689;48.590;7.752;2023-08-21T11:04:54;6.65;;;3.60;;
25870;SDS011;13689;48.590;7.752;2023-08-21T11:07:20;6.97;;;4.03;;
25870;SDS011;13689;48.590;7.752;2023-08-21T11:09:46;7.10;;;3.58;;
25870;SDS011;13689;48.590;7.752;2023-08-21T11:12:13;7.22;;;3.75;;
25870;SDS011;13689;48.590;7.752;2023-08-21T11:14:40;10.82;;;3.75;;
25870;SDS011;13689;48.590;7.752;2023-08-21T11:17:07;9.23;;;3.90;;
25870;SDS011;13689;48.590;7.752;2023-08-21T11:19:34;6.68;;;3.38;;
25870;SDS011;13689;48.590;7.752;2023-08-21T11:22:00;6.68;;;4.38;;
25870;SDS011;13689;48.590;7.752;2023-08-21T11:24:42;7.35;;;4.38;;
25870;SDS011;13689;48.590;7.752;2023-08-21T11:27:10;3.70;;;3.05;;
25870;SDS011;13689;48.590;7.752;2023-08-21T11:29:38;5.88;;;3.90;;
25870;SDS011;13689;48.590;7.752;2023-08-21T11:34:34;8.32;;;3.95;;
25870;SDS011;13689;48.590;7.752;2023-08-21T11:36:59;6.65;;;3.42;;
25870;SDS011;13689;48.590;7.752;2023-08-21T11:39:25;10.93;;;3.72;;
25870;SDS011;13689;48.590;7.752;2023-08-21T11:41:57;7.18;;;3.70;;
25870;SDS011;13689;48.590;7.752;2023-08-21T11:44:24;4.38;;;3.60;;
25870;SDS011;13689;48.590;7.752;2023-08-21T11:46:52;4.88;;;3.45;;
25870;SDS011;13689;48.590;7.752;2023-08-21T11:49:18;6.20;;;3.70;;
25870;SDS011;13689;48.590;7.752;2023-08-21T11:51:44;4.35;;;3.55;;
25870;SDS011;13689;48.590;7.752;2023-08-21T11:54:11;7.13;;;4.18;;
25870;SDS011;13689;48.590;7.752;2023-08-21T11:56:38;9.13;;;3.95;;
25870;SDS011;13689;48.590;7.752;2023-08-21T11:59:04;6.88;;;3.95;;
25870;SDS011;13689;48.590;7.752;2023-08-21T12:01:32;6.70;;;4.32;;
25870;SDS011;13689;48.590;7.752;2023-08-21T12:03:58;5.53;;;3.75;;
25870;SDS011;13689;48.590;7.752;2023-08-21T12:06:24;8.93;;;4.60;;
25870;SDS011;13689;48.590;7.752;2023-08-21T12:08:50;4.72;;;3.90;;
25870;SDS011;13689;48.590;7.752;2023-08-21T12:11:16;7.53;;;4.03;;
25870;SDS011;13689;48.590;7.752;2023-08-21T12:13:45;6.80;;;4.10;;
25870;SDS011;13689;48.590;7.752;2023-08-21T12:16:10;6.75;;;3.90;;
25870;SDS011;13689;48.590;7.752;2023-08-21T12:18:36;6.53;;;3.65;;
25870;SDS011;13689;48.590;7.752;2023-08-21T12:21:02;11.80;;;4.10;;
25870;SDS011;13689;48.590;7.752;2023-08-21T12:23:27;6.93;;;3.90;;
25870;SDS011;13689;48.590;7.752;2023-08-21T12:25:53;8.02;;;3.90;;
25870;SDS011;13689;48.590;7.752;2023-08-21T12:28:19;6.65;;;3.40;;
25870;SDS011;13689;48.590;7.752;2023-08-21T12:30:44;5.53;;;3.28;;
25870;SDS011;13689;48.590;7.752;2023-08-21T12:33:12;6.15;;;3.53;;
25870;SDS011;13689;48.590;7.752;2023-08-21T12:35:37;7.45;;;3.53;;
25870;SDS011;13689;48.590;7.752;2023-08-21T12:38:10;5.90;;;3.53;;
25870;SDS011;13689;48.590;7.752;2023-08-21T12:40:37;5.20;;;3.00;;
25870;SDS011;13689;48.590;7.752;2023-08-21T12:43:03;9.38;;;4.10;;
25870;SDS011;13689;48.590;7.752;2023-08-21T12:45:32;5.90;;;3.78;;
25870;SDS011;13689;48.590;7.752;2023-08-21T12:47:57;5.50;;;4.05;;
25870;SDS011;13689;48.590;7.752;2023-08-21T12:50:23;7.78;;;3.40;;
25870;SDS011;13689;48.590;7.752;2023-08-21T12:52:48;6.18;;;3.83;;
25870;SDS011;13689;48.590;7.752;2023-08-21T12:55:14;8.63;;;3.58;;
25870;SDS011;13689;48.590;7.752;2023-08-21T12:57:39;5.28;;;3.72;;
25870;SDS011;13689;48.590;7.752;2023-08-21T13:00:05;5.53;;;3.15;;
25870;SDS011;13689;48.590;7.752;2023-08-21T13:02:31;4.93;;;2.83;;
25870;SDS011;13689;48.590;7.752;2023-08-21T13:04:57;12.10;;;3.63;;
25870;SDS011;13689;48.590;7.752;2023-08-21T13:07:22;7.22;;;3.88;;
25870;SDS011;13689;48.590;7.752;2023-08-21T13:09:54;7.05;;;3.42;;
25870;SDS011;13689;48.590;7.752;2023-08-21T13:12:19;11.18;;;3.75;;
25870;SDS011;13689;48.590;7.752;2023-08-21T13:14:45;10.00;;;3.65;;
25870;SDS011;13689;48.590;7.752;2023-08-21T13:17:13;8.95;;;3.35;;
25870;SDS011;13689;48.590;7.752;2023-08-21T13:19:38;8.30;;;3.80;;
25870;SDS011;13689;48.590;7.752;2023-08-21T13:22:04;7.13;;;3.55;;
25870;SDS011;13689;48.590;7.752;2023-08-21T13:24:29;10.25;;;3.72;;
25870;SDS011;13689;48.590;7.752;2023-08-21T13:26:55;7.70;;;3.60;;
25870;SDS011;13689;48.590;7.752;2023-08-21T13:29:21;5.55;;;3.83;;
25870;SDS011;13689;48.590;7.752;2023-08-21T13:31:46;4.97;;;3.22;;
25870;SDS011;13689;48.590;7.752;2023-08-21T13:34:12;9.95;;;3.65;;
25870;SDS011;13689;48.590;7.752;2023-08-21T13:36:38;11.52;;;3.67;;
25870;SDS011;13689;48.590;7.752;2023-08-21T13:39:06;6.95;;;3.80;;
25870;SDS011;13689;48.590;7.752;2023-08-21T13:41:33;9.98;;;4.05;;
25870;SDS011;13689;48.590;7.752;2023-08-21T13:43:58;6.13;;;3.47;;
25870;SDS011;13689;48.590;7.752;2023-08-21T13:46:24;9.65;;;3.80;;
25870;SDS011;13689;48.590;7.752;2023-08-21T13:48:49;6.90;;;3.95;;
25870;SDS011;13689;48.590;7.752;2023-08-21T13:51:15;8.32;;;4.03;;
25870;SDS011;13689;48.590;7.752;2023-08-21T13:53:41;7.25;;;2.95;;
25870;SDS011;13689;48.590;7.752;2023-08-21T13:56:06;9.05;;;3.50;;
25870;SDS011;13689;48.590;7.752;2023-08-21T13:58:32;4.15;;;3.25;;
25870;SDS011;13689;48.590;7.752;2023-08-21T14:00:57;6.68;;;3.72;;
25870;SDS011;13689;48.590;7.752;2023-08-21T14:03:23;5.68;;;3.17;;
25870;SDS011;13689;48.590;7.752;2023-08-21T14:05:49;9.90;;;3.17;;
25870;SDS011;13689;48.590;7.752;2023-08-21T14:08:15;7.47;;;2.88;;
25870;SDS011;13689;48.590;7.752;2023-08-21T14:10:41;12.25;;;2.90;;
25870;SDS011;13689;48.590;7.752;2023-08-21T14:13:06;6.80;;;2.70;;
25870;SDS011;13689;48.590;7.752;2023-08-21T14:15:33;5.10;;;2.83;;
25870;SDS011;13689;48.590;7.752;2023-08-21T14:17:59;5.72;;;3.15;;
25870;SDS011;13689;48.590;7.752;2023-08-21T14:20:24;5.00;;;3.00;;
25870;SDS011;13689;48.590;7.752;2023-08-21T14:22:50;5.47;;;2.95;;
25870;SDS011;13689;48.590;7.752;2023-08-21T14:25:16;4.88;;;2.80;;
25870;SDS011;13689;48.590;7.752;2023-08-21T14:27:42;7.78;;;3.75;;
25870;SDS011;13689;48.590;7.752;2023-08-21T14:30:08;5.75;;;2.80;;
25870;SDS011;13689;48.590;7.752;2023-08-21T14:32:34;6.88;;;2.88;;
25870;SDS011;13689;48.590;7.752;2023-08-21T14:35:00;6.07;;;3.20;;
25870;SDS011;13689;48.590;7.752;2023-08-21T14:37:25;3.72;;;2.55;;
25870;SDS011;13689;48.590;7.752;2023-08-21T14:39:51;3.22;;;2.63;;
25870;SDS011;13689;48.590;7.752;2023-08-21T14:42:16;3.72;;;3.00;;
25870;SDS011;13689;48.590;7.752;2023-08-21T14:44:42;7.30;;;4.50;;
25870;SDS011;13689;48.590;7.752;2023-08-21T14:47:08;4.88;;;3.05;;
25870;SDS011;13689;48.590;7.752;2023-08-21T14:49:33;4.68;;;2.92;;
25870;SDS011;13689;48.590;7.752;2023-08-21T14:51:59;3.70;;;2.78;;
25870;SDS011;13689;48.590;7.752;2023-08-21T14:54:24;4.20;;;2.70;;
25870;SDS011;13689;48.590;7.752;2023-08-21T14:56:50;2.60;;;2.40;;
25870;SDS011;13689;48.590;7.752;2023-08-21T14:59:16;7.05;;;2.95;;